Time;durP1;ratioP1;P1;durP2;ratioP2;P2;SDS_P1;SDS_P2;PMS_P1;PMS_P2;Temp;Humidity;BMP_temperature;BMP_pressure;BME280_temperature;BME280_humidity;BME280_pressure;Samples;Min_cycle;Max_cycle;Signal;HPM_P1;HPM_P2
2022/01/27 00:01:56;;;;;;;38.80;21.70;;;6.90;68.10;;;;;;5059763;28;20036;-80
2022/01/27 00:04:32;;;;;;;36.83;21.27;;;6.90;68.20;;;;;;5056546;28;20051;-81
2022/01/27 00:06:59;;;;;;;39.75;21.73;;;6.90;68.10;;;;;;5043148;28;20412;-80
2022/01/27 00:09:43;;;;;;;36.65;21.90;;;6.90;68.10;;;;;;5047634;28;20048;-79
2022/01/27 00:12:13;;;;;;;38.92;20.63;;;6.90;68.10;;;;;;5067330;28;20052;-80
2022/01/27 00:14:46;;;;;;;35.30;21.27;;;6.90;68.20;;;;;;5068246;28;20341;-80
2022/01/27 00:17:15;;;;;;;36.85;21.33;;;7.00;68.20;;;;;;5051344;28;20048;-80
2022/01/27 00:19:42;;;;;;;38.97;20.67;;;6.90;68.10;;;;;;5061256;28;20105;-81
2022/01/27 00:22:09;;;;;;;32.08;20.13;;;6.90;68.10;;;;;;5054383;28;20253;-80
2022/01/27 00:24:36;;;;;;;39.38;21.48;;;6.90;68.10;;;;;;5059852;28;20068;-81
2022/01/27 00:27:03;;;;;;;33.20;20.40;;;6.90;68.20;;;;;;5062987;28;20065;-80
2022/01/27 00:29:30;;;;;;;36.08;21.60;;;6.90;68.20;;;;;;5044882;28;20074;-80
2022/01/27 00:31:57;;;;;;;32.30;19.13;;;6.90;68.30;;;;;;5066369;28;20135;-80
2022/01/27 00:34:23;;;;;;;34.05;20.63;;;6.90;68.30;;;;;;5065849;28;20056;-81
2022/01/27 00:36:50;;;;;;;34.10;19.77;;;6.90;68.20;;;;;;5032806;28;20063;-80
2022/01/27 00:39:17;;;;;;;38.28;20.70;;;6.90;68.20;;;;;;5055513;28;20059;-82
2022/01/27 00:41:44;;;;;;;39.85;20.05;;;6.90;68.10;;;;;;5048187;28;20126;-80
2022/01/27 00:44:11;;;;;;;34.95;19.92;;;6.90;68.10;;;;;;5060905;28;20645;-80
2022/01/27 00:46:38;;;;;;;41.08;20.92;;;6.90;68.20;;;;;;5067372;28;20044;-80
2022/01/27 00:49:05;;;;;;;33.17;19.52;;;6.90;68.20;;;;;;5067903;28;20047;-79
2022/01/27 00:51:36;;;;;;;35.85;20.55;;;7.00;68.30;;;;;;5066739;28;20497;-80
2022/01/27 00:56:44;;;;;;;38.00;20.17;;;7.00;68.40;;;;;;5039812;28;20186;-80
2022/01/27 01:01:49;;;;;;;36.40;20.23;;;7.00;68.30;;;;;;5067532;28;20396;-81
2022/01/27 01:04:24;;;;;;;36.00;20.25;;;7.00;68.90;;;;;;5067774;28;20097;-80
2022/01/27 01:06:52;;;;;;;37.67;19.90;;;7.00;68.20;;;;;;5044882;28;20434;-80
2022/01/27 01:14:52;;;;;;;35.22;19.80;;;7.00;68.20;;;;;;5030523;28;20551;-81
2022/01/27 01:20:18;;;;;;;33.88;20.67;;;7.00;68.10;;;;;;5079909;28;20044;-81
2022/01/27 01:34:14;;;;;;;35.53;20.13;;;6.90;68.30;;;;;;5055197;28;20056;-80
2022/01/27 01:37:03;;;;;;;33.35;19.00;;;6.90;68.30;;;;;;5044703;28;20286;-81
2022/01/27 01:39:33;;;;;;;36.08;18.15;;;6.90;68.40;;;;;;5086258;28;20045;-80
2022/01/27 01:42:02;;;;;;;34.38;18.58;;;6.90;69.10;;;;;;5049110;28;20044;-81
2022/01/27 01:44:29;;;;;;;33.88;18.00;;;6.90;68.50;;;;;;5050066;28;20051;-80
2022/01/27 01:46:56;;;;;;;34.90;19.90;;;6.80;68.40;;;;;;5048982;28;20106;-82
2022/01/27 01:49:26;;;;;;;31.85;18.95;;;6.90;68.50;;;;;;5041720;28;20100;-81
2022/01/27 01:51:56;;;;;;;30.45;17.73;;;6.90;68.60;;;;;;5086603;28;20545;-82
2022/01/27 01:54:24;;;;;;;32.88;18.30;;;6.90;68.50;;;;;;5067228;28;20063;-80
2022/01/27 01:56:51;;;;;;;35.60;17.63;;;6.90;68.50;;;;;;5046303;28;20109;-81
2022/01/27 01:59:19;;;;;;;37.13;18.73;;;6.90;68.60;;;;;;5051034;28;20492;-80
2022/01/27 02:01:47;;;;;;;33.20;17.73;;;7.00;68.70;;;;;;5065935;28;20040;-80
2022/01/27 02:04:14;;;;;;;35.10;19.25;;;7.00;68.70;;;;;;5051105;28;20068;-80
2022/01/27 02:06:51;;;;;;;32.92;18.60;;;7.00;68.70;;;;;;5042020;28;20388;-80
2022/01/27 02:20:19;;;;;;;30.80;17.60;;;7.00;68.70;;;;;;4987038;28;20042;-80
2022/01/27 02:22:46;;;;;;;32.25;19.58;;;7.00;68.70;;;;;;5026375;28;20102;-79
2022/01/27 02:25:13;;;;;;;33.97;18.13;;;7.00;68.70;;;;;;5087984;28;20114;-81
2022/01/27 02:27:39;;;;;;;31.15;18.25;;;7.00;68.70;;;;;;5069459;28;20040;-79
2022/01/27 02:30:06;;;;;;;29.67;16.98;;;7.00;68.70;;;;;;5071360;28;20070;-80
2022/01/27 02:32:33;;;;;;;31.23;18.67;;;7.00;68.70;;;;;;5057660;28;20111;-81
2022/01/27 02:35:01;;;;;;;32.15;17.52;;;7.00;68.80;;;;;;5056265;28;20040;-80
2022/01/27 02:37:27;;;;;;;30.98;18.13;;;7.00;68.80;;;;;;5068211;28;20147;-81
2022/01/27 02:39:55;;;;;;;31.60;17.90;;;7.00;68.80;;;;;;5069958;28;20040;-79
2022/01/27 02:42:35;;;;;;;35.72;19.55;;;7.00;68.80;;;;;;5048263;28;20044;-80
2022/01/27 02:45:18;;;;;;;31.73;18.30;;;7.10;68.80;;;;;;5014206;28;20045;-79
2022/01/27 02:47:45;;;;;;;31.20;18.23;;;7.10;68.80;;;;;;5053225;28;20048;-80
2022/01/27 02:50:12;;;;;;;31.27;18.20;;;7.10;68.80;;;;;;5067524;28;20596;-79
2022/01/27 02:52:39;;;;;;;30.80;16.98;;;7.10;68.80;;;;;;5046654;28;20055;-80
2022/01/27 02:55:07;;;;;;;29.77;17.23;;;7.10;68.80;;;;;;5055419;28;20048;-80
2022/01/27 02:57:35;;;;;;;31.38;18.25;;;7.10;68.80;;;;;;5070090;28;20044;-79
2022/01/27 03:00:02;;;;;;;32.60;19.45;;;7.10;68.70;;;;;;5084331;28;20055;-80
2022/01/27 03:02:29;;;;;;;29.83;17.55;;;7.10;68.70;;;;;;5057782;28;20529;-80
2022/01/27 03:04:56;;;;;;;31.17;17.45;;;7.10;68.80;;;;;;5053784;28;20044;-80
2022/01/27 03:07:23;;;;;;;31.30;17.83;;;7.10;68.80;;;;;;5047570;28;20558;-79
2022/01/27 03:09:50;;;;;;;33.78;17.95;;;7.00;68.80;;;;;;5052320;28;20044;-80
2022/01/27 03:12:17;;;;;;;27.45;17.25;;;7.10;68.80;;;;;;5035462;28;20060;-79
2022/01/27 03:14:44;;;;;;;31.65;17.40;;;7.10;68.80;;;;;;5083853;28;20040;-80
2022/01/27 03:17:11;;;;;;;31.08;18.17;;;7.10;68.80;;;;;;5045058;28;20049;-80
2022/01/27 03:19:38;;;;;;;29.63;17.20;;;7.10;68.80;;;;;;5045780;23;20412;-47
2022/01/27 03:22:06;;;;;;;31.25;17.25;;;7.20;68.80;;;;;;5042640;28;20495;-45
2022/01/27 03:24:34;;;;;;;29.90;18.00;;;7.20;68.90;;;;;;5017090;28;20045;-46
2022/01/27 03:27:05;;;;;;;26.92;17.08;;;7.20;68.90;;;;;;5030158;28;20041;-45
2022/01/27 03:29:34;;;;;;;28.20;16.42;;;7.20;68.90;;;;;;5029901;28;20448;-45
2022/01/27 03:32:01;;;;;;;30.48;18.00;;;7.20;68.90;;;;;;5028293;28;20576;-46
2022/01/27 03:34:27;;;;;;;29.20;18.13;;;7.20;68.90;;;;;;5020550;28;20513;-44
2022/01/27 03:36:54;;;;;;;31.45;18.67;;;7.20;68.90;;;;;;5028675;28;20069;-49
2022/01/27 03:39:23;;;;;;;32.03;17.17;;;7.30;69.00;;;;;;5033151;28;20041;-46
2022/01/27 03:41:51;;;;;;;28.27;17.85;;;7.30;69.00;;;;;;5027423;28;20496;-44
2022/01/27 03:44:20;;;;;;;28.42;17.05;;;7.30;69.00;;;;;;5020406;28;20045;-46
2022/01/27 03:46:52;;;;;;;31.58;17.00;;;7.30;69.00;;;;;;5029059;28;20068;-44
2022/01/27 03:49:20;;;;;;;29.17;17.20;;;7.30;69.00;;;;;;5005770;28;20056;-45
2022/01/27 03:51:47;;;;;;;30.25;16.65;;;7.40;69.00;;;;;;5025469;28;20580;-45
2022/01/27 03:54:14;;;;;;;30.23;17.70;;;7.40;69.00;;;;;;5023577;28;20080;-46
2022/01/27 03:56:41;;;;;;;27.60;16.27;;;7.40;69.00;;;;;;5032095;28;20390;-48
2022/01/27 03:59:08;;;;;;;28.40;16.45;;;7.40;69.00;;;;;;5028336;28;20476;-45
2022/01/27 04:01:36;;;;;;;24.85;15.68;;;7.40;69.00;;;;;;5019621;28;20108;-46
2022/01/27 04:04:03;;;;;;;28.65;16.15;;;7.40;69.00;;;;;;5028364;28;20108;-46
2022/01/27 04:06:37;;;;;;;27.23;16.35;;;7.50;69.10;;;;;;5024023;28;20052;-48
2022/01/27 04:09:07;;;;;;;24.88;14.75;;;7.50;69.10;;;;;;5028548;28;20037;-45
2022/01/27 04:11:34;;;;;;;24.75;14.98;;;7.50;69.00;;;;;;5020838;28;20073;-46
2022/01/27 04:14:01;;;;;;;25.15;14.90;;;7.50;69.00;;;;;;5027843;28;20072;-44
2022/01/27 04:16:28;;;;;;;26.17;16.42;;;7.60;69.00;;;;;;5031148;28;20037;-45
2022/01/27 04:18:55;;;;;;;27.02;15.93;;;7.50;69.00;;;;;;5027863;28;20144;-46
2022/01/27 04:21:21;;;;;;;27.35;16.20;;;7.50;68.90;;;;;;5027664;28;20068;-44
2022/01/27 04:23:50;;;;;;;25.58;16.02;;;7.60;69.00;;;;;;5021401;28;20128;-47
2022/01/27 04:26:21;;;;;;;28.33;15.55;;;7.60;68.90;;;;;;5031027;28;20049;-45
2022/01/27 04:28:50;;;;;;;29.13;15.10;;;7.60;68.90;;;;;;5018452;28;20065;-45
2022/01/27 04:31:17;;;;;;;26.75;15.43;;;7.60;69.00;;;;;;5023537;28;20119;-45
2022/01/27 04:33:46;;;;;;;25.30;16.83;;;7.70;69.10;;;;;;5026829;28;20065;-47
2022/01/27 04:36:35;;;;;;;27.33;16.38;;;7.70;69.10;;;;;;5030296;28;20046;-47
2022/01/27 04:39:13;;;;;;;20.90;13.50;;;7.70;69.00;;;;;;5016632;28;20455;-47
2022/01/27 04:42:03;;;;;;;27.25;16.00;;;7.70;69.00;;;;;;5008559;28;20038;-49
2022/01/27 04:44:46;;;;;;;25.42;14.55;;;7.70;69.00;;;;;;5028487;28;20044;-47
2022/01/27 04:47:27;;;;;;;28.10;16.05;;;7.70;69.00;;;;;;5023192;28;20050;-48
2022/01/27 04:49:54;;;;;;;26.33;14.98;;;7.70;68.90;;;;;;5015588;28;20137;-49
2022/01/27 04:52:22;;;;;;;22.15;14.95;;;7.80;68.90;;;;;;5007396;28;20080;-45
2022/01/27 04:54:58;;;;;;;25.67;15.88;;;7.80;68.90;;;;;;5021761;28;20092;-50
2022/01/27 04:57:27;;;;;;;26.70;15.05;;;7.80;68.90;;;;;;5026909;28;20104;-50
2022/01/27 04:59:58;;;;;;;25.77;15.63;;;7.80;68.90;;;;;;5020888;28;20057;-49
2022/01/27 05:02:36;;;;;;;25.75;15.68;;;7.80;68.90;;;;;;5031612;28;20137;-48
2022/01/27 05:05:03;;;;;;;21.48;15.15;;;7.80;68.90;;;;;;5028673;28;20045;-46
2022/01/27 05:07:54;;;;;;;28.38;15.30;;;7.80;68.90;;;;;;5010615;28;20048;-47
2022/01/27 05:10:31;;;;;;;26.73;14.20;;;7.80;68.90;;;;;;5027781;28;20128;-46
2022/01/27 05:13:07;;;;;;;26.33;15.10;;;7.80;68.90;;;;;;5028908;28;20065;-47
2022/01/27 05:15:41;;;;;;;26.38;14.98;;;7.80;68.90;;;;;;5026330;28;20131;-46
2022/01/27 05:18:08;;;;;;;23.35;14.68;;;7.80;69.00;;;;;;5012733;28;20416;-46
2022/01/27 05:20:34;;;;;;;24.20;15.18;;;7.80;69.10;;;;;;4998974;28;20508;-47
2022/01/27 05:23:01;;;;;;;25.08;15.55;;;7.80;69.10;;;;;;5026695;28;20038;-49
2022/01/27 05:25:28;;;;;;;24.95;15.48;;;7.80;69.20;;;;;;5002685;28;20047;-48
2022/01/27 05:27:55;;;;;;;27.95;15.23;;;7.80;69.30;;;;;;5020956;28;20466;-47
2022/01/27 05:30:22;;;;;;;28.20;16.92;;;7.80;69.30;;;;;;5027867;28;20037;-49
2022/01/27 05:32:49;;;;;;;25.52;15.60;;;7.90;69.30;;;;;;5023040;28;20091;-47
2022/01/27 05:35:16;;;;;;;28.77;17.38;;;7.90;69.30;;;;;;5023493;28;20334;-47
2022/01/27 05:37:42;;;;;;;22.60;13.55;;;7.90;69.30;;;;;;5025839;28;20113;-46
2022/01/27 05:40:09;;;;;;;31.27;16.27;;;7.90;69.40;;;;;;5023671;28;20501;-46
2022/01/27 05:42:36;;;;;;;25.73;14.75;;;7.90;69.90;;;;;;5027436;28;20044;-49
2022/01/27 05:45:04;;;;;;;26.05;14.65;;;7.90;69.40;;;;;;5024437;28;20041;-46
2022/01/27 05:47:31;;;;;;;27.80;15.40;;;7.90;69.40;;;;;;5029640;28;20030;-46
2022/01/27 05:49:57;;;;;;;26.88;16.05;;;7.90;69.40;;;;;;5029347;28;20584;-47
2022/01/27 05:52:24;;;;;;;28.48;15.82;;;7.90;69.30;;;;;;5023194;28;20129;-45
2022/01/27 05:54:51;;;;;;;28.48;16.33;;;7.90;69.30;;;;;;5027481;28;20061;-47
2022/01/27 05:57:17;;;;;;;25.13;14.90;;;7.90;69.30;;;;;;5030544;28;20049;-48
2022/01/27 05:59:44;;;;;;;29.95;15.27;;;8.00;69.40;;;;;;5032797;28;20513;-48
2022/01/27 06:02:11;;;;;;;25.98;16.08;;;8.00;69.40;;;;;;5029899;28;20108;-47
2022/01/27 06:04:38;;;;;;;26.17;15.88;;;8.00;69.40;;;;;;5019596;28;20045;-47
2022/01/27 06:07:05;;;;;;;25.17;15.57;;;8.00;69.50;;;;;;5028986;28;20057;-45
2022/01/27 06:09:31;;;;;;;25.67;14.95;;;8.00;69.60;;;;;;5025425;28;20034;-46
2022/01/27 06:11:58;;;;;;;25.65;14.82;;;8.00;69.60;;;;;;5022267;28;20048;-45
2022/01/27 06:14:25;;;;;;;27.27;15.77;;;8.00;69.70;;;;;;5030515;28;20072;-45
2022/01/27 06:16:52;;;;;;;27.17;16.23;;;8.00;69.70;;;;;;5028970;28;20055;-48
2022/01/27 06:19:27;;;;;;;25.60;15.65;;;8.20;69.80;;;;;;5028488;28;20057;-48
2022/01/27 06:21:54;;;;;;;27.65;16.15;;;8.00;69.70;;;;;;5021089;28;20077;-49
2022/01/27 06:24:21;;;;;;;27.73;16.02;;;8.10;69.70;;;;;;5020367;28;20054;-50
2022/01/27 06:26:48;;;;;;;24.08;15.35;;;8.10;69.70;;;;;;5018555;28;20072;-47
2022/01/27 06:29:14;;;;;;;26.13;14.75;;;8.10;69.70;;;;;;5009957;28;20073;-48
2022/01/27 06:31:41;;;;;;;29.92;17.40;;;8.10;69.70;;;;;;5027559;28;20045;-51
2022/01/27 06:34:08;;;;;;;29.65;16.33;;;8.10;69.60;;;;;;5025787;28;20096;-47
2022/01/27 06:36:35;;;;;;;29.02;16.25;;;8.20;69.50;;;;;;5021393;28;20071;-49
2022/01/27 06:39:02;;;;;;;26.90;15.70;;;8.10;69.40;;;;;;5029869;28;20096;-50
2022/01/27 06:41:29;;;;;;;25.55;13.90;;;8.10;69.40;;;;;;5028943;28;20052;-46
2022/01/27 06:43:58;;;;;;;30.52;17.90;;;8.10;69.40;;;;;;5021564;28;20072;-48
2022/01/27 06:46:25;;;;;;;29.70;16.77;;;8.10;69.60;;;;;;5016905;28;20552;-48
2022/01/27 06:48:53;;;;;;;28.98;16.92;;;8.10;69.70;;;;;;5023049;28;20077;-49
2022/01/27 06:51:20;;;;;;;32.47;17.88;;;8.10;69.90;;;;;;5027869;28;20060;-47
2022/01/27 06:53:47;;;;;;;27.42;16.08;;;8.10;70.00;;;;;;5020132;28;20096;-47
2022/01/27 06:56:13;;;;;;;28.42;16.92;;;8.10;70.10;;;;;;5027182;28;20579;-47
2022/01/27 06:58:43;;;;;;;27.65;17.52;;;8.20;70.20;;;;;;5020850;28;20041;-48
2022/01/27 07:01:09;;;;;;;32.53;18.55;;;8.20;70.30;;;;;;5021174;28;20089;-49
2022/01/27 07:03:36;;;;;;;30.80;18.02;;;8.20;70.20;;;;;;5028100;28;20079;-50
2022/01/27 07:06:03;;;;;;;30.33;16.63;;;8.20;70.20;;;;;;5029996;28;20088;-48
2022/01/27 07:08:30;;;;;;;31.33;17.90;;;8.30;70.30;;;;;;5028253;28;20042;-50
2022/01/27 07:10:57;;;;;;;29.58;17.27;;;8.30;70.20;;;;;;5026749;28;20038;-48
2022/01/27 07:13:23;;;;;;;29.98;16.92;;;8.30;70.20;;;;;;5019538;28;20096;-46
2022/01/27 07:15:50;;;;;;;31.17;17.98;;;8.40;70.20;;;;;;5030242;28;20072;-48
2022/01/27 07:18:17;;;;;;;29.63;16.48;;;8.40;70.20;;;;;;5022142;28;20084;-46
2022/01/27 07:20:45;;;;;;;34.30;17.83;;;8.40;70.20;;;;;;5028723;28;20045;-47
2022/01/27 07:23:11;;;;;;;32.38;17.58;;;8.40;70.10;;;;;;5077269;22;20127;-53
2022/01/27 07:25:38;;;;;;;33.20;19.67;;;8.40;70.00;;;;;;5089817;28;20072;-53
2022/01/27 07:28:05;;;;;;;30.05;17.75;;;8.40;70.00;;;;;;5090113;28;20048;-53
2022/01/27 07:30:32;;;;;;;31.40;17.48;;;8.40;70.00;;;;;;5081696;28;20107;-52
2022/01/27 07:32:58;;;;;;;31.20;18.55;;;8.50;70.10;;;;;;5082360;28;20040;-52
2022/01/27 07:35:26;;;;;;;31.98;18.52;;;8.50;70.10;;;;;;5067114;28;20036;-52
2022/01/27 07:37:53;;;;;;;32.80;19.50;;;8.50;70.10;;;;;;5081504;28;20063;-53
2022/01/27 07:40:20;;;;;;;34.00;19.00;;;8.50;70.20;;;;;;5089677;28;20109;-53
2022/01/27 07:43:10;;;;;;;30.20;18.42;;;8.50;70.30;;;;;;5075475;28;20540;-50
2022/01/27 07:45:37;;;;;;;32.38;19.25;;;8.50;70.40;;;;;;5078752;28;20052;-52
2022/01/27 07:48:04;;;;;;;32.35;18.98;;;8.50;70.40;;;;;;5088547;28;20055;-53
2022/01/27 07:50:31;;;;;;;31.83;17.88;;;8.50;70.50;;;;;;5084823;28;20124;-51
2022/01/27 07:52:58;;;;;;;33.58;17.67;;;8.70;70.70;;;;;;5079356;28;20085;-52
2022/01/27 07:55:25;;;;;;;31.02;18.95;;;8.50;70.70;;;;;;5079911;28;20077;-52
2022/01/27 07:57:53;;;;;;;32.78;17.48;;;8.60;70.80;;;;;;5075772;28;20041;-51
2022/01/27 08:00:19;;;;;;;30.73;18.20;;;8.50;70.70;;;;;;5066725;28;20049;-52
2022/01/27 08:02:46;;;;;;;29.40;17.13;;;8.50;70.80;;;;;;5076827;28;20090;-50
2022/01/27 08:05:13;;;;;;;34.42;18.67;;;8.50;70.80;;;;;;5076407;28;20492;-53
2022/01/27 08:07:40;;;;;;;35.17;20.25;;;8.50;70.90;;;;;;5067855;28;20412;-52
2022/01/27 08:10:07;;;;;;;32.53;19.98;;;8.60;71.20;;;;;;5068376;28;20075;-52
2022/01/27 08:12:42;;;;;;;32.05;17.52;;;8.60;71.50;;;;;;5066815;28;20132;-53
2022/01/27 08:15:11;;;;;;;37.15;19.45;;;8.60;71.80;;;;;;5063693;28;20064;-54
2022/01/27 08:17:38;;;;;;;31.05;18.35;;;8.50;71.60;;;;;;5047634;28;20115;-52
2022/01/27 08:20:06;;;;;;;35.70;18.70;;;8.60;71.90;;;;;;5068236;28;20504;-50
2022/01/27 08:22:37;;;;;;;32.65;18.88;;;8.60;72.20;;;;;;5075821;28;20101;-53
2022/01/27 08:25:04;;;;;;;30.90;17.50;;;8.50;72.30;;;;;;5071582;28;20508;-50
2022/01/27 08:27:32;;;;;;;33.40;19.48;;;8.50;72.30;;;;;;5059629;28;20117;-51
2022/01/27 08:30:04;;;;;;;30.83;17.88;;;8.50;72.40;;;;;;5077847;28;20102;-52
2022/01/27 08:35:19;;;;;;;30.45;18.33;;;8.50;72.40;;;;;;5072817;28;20082;-51
2022/01/27 08:37:47;;;;;;;30.30;18.95;;;8.50;72.40;;;;;;5058289;28;20062;-50
2022/01/27 08:40:15;;;;;;;29.75;18.05;;;8.50;72.40;;;;;;5078695;28;20105;-53
2022/01/27 08:43:03;;;;;;;30.20;18.40;;;8.50;72.50;;;;;;5069223;28;20411;-54
2022/01/27 08:45:30;;;;;;;31.13;18.83;;;8.60;72.50;;;;;;5049606;28;20161;-53
2022/01/27 08:47:58;;;;;;;30.45;17.83;;;8.60;72.50;;;;;;5066871;28;20752;-53
2022/01/27 08:50:25;;;;;;;27.65;17.98;;;8.60;72.50;;;;;;5067154;28;20068;-53
2022/01/27 08:52:52;;;;;;;31.65;19.02;;;8.60;72.50;;;;;;5065266;28;20074;-54
2022/01/27 08:55:21;;;;;;;34.75;19.00;;;8.60;72.60;;;;;;5055933;28;20051;-51
2022/01/27 08:57:48;;;;;;;30.33;19.05;;;8.70;72.70;;;;;;5070751;28;20063;-53
2022/01/27 09:00:19;;;;;;;31.38;18.73;;;8.70;73.10;;;;;;5069126;28;20064;-51
2022/01/27 09:02:50;;;;;;;34.03;19.60;;;8.70;73.40;;;;;;5063466;28;20078;-49
2022/01/27 09:05:17;;;;;;;28.35;18.75;;;8.80;73.60;;;;;;5068089;28;20112;-49
2022/01/27 09:07:44;;;;;;;36.65;18.95;;;8.80;73.60;;;;;;5067571;28;20068;-50
2022/01/27 09:10:11;;;;;;;29.02;19.02;;;8.80;73.70;;;;;;5053202;28;20037;-53
2022/01/27 09:12:37;;;;;;;34.45;20.08;;;8.80;73.60;;;;;;5059171;28;20563;-50
2022/01/27 09:15:05;;;;;;;29.65;19.65;;;8.80;73.70;;;;;;5057867;28;20033;-50
2022/01/27 09:17:38;;;;;;;31.58;19.33;;;8.70;73.90;;;;;;5059607;28;20099;-50
2022/01/27 09:20:08;;;;;;;32.35;18.88;;;8.70;74.10;;;;;;5049303;28;20130;-49
2022/01/27 09:22:36;;;;;;;33.13;19.27;;;8.70;74.30;;;;;;5061311;28;20072;-50
2022/01/27 09:25:19;;;;;;;32.85;18.80;;;8.70;74.40;;;;;;5076241;28;20064;-51
2022/01/27 09:27:46;;;;;;;;;;;8.70;74.60;;;;;;5076029;28;20123;-51
2022/01/27 09:30:17;;;;;;;31.45;18.67;;;8.70;74.80;;;;;;5067445;28;20072;-52
2022/01/27 09:32:44;;;;;;;31.70;19.40;;;8.70;74.40;;;;;;5084826;28;20067;-52
2022/01/27 09:35:11;;;;;;;32.70;19.33;;;8.70;74.80;;;;;;5071197;28;20044;-49
2022/01/27 09:37:39;;;;;;;34.55;19.83;;;8.70;75.00;;;;;;5075027;28;20467;-50
2022/01/27 09:40:07;;;;;;;31.55;18.65;;;8.70;75.30;;;;;;5086246;28;20091;-50
2022/01/27 09:42:37;;;;;;;29.63;18.90;;;8.70;75.40;;;;;;5086905;28;20097;-54
2022/01/27 09:45:05;;;;;;;30.42;18.05;;;8.70;75.60;;;;;;5078704;28;20086;-49
2022/01/27 09:47:35;;;;;;;27.83;18.13;;;8.70;75.70;;;;;;5078526;28;20097;-51
2022/01/27 09:50:18;;;;;;;28.65;18.55;;;8.70;75.80;;;;;;5072515;28;20102;-54
2022/01/27 09:52:46;;;;;;;28.92;17.48;;;8.80;76.00;;;;;;5084556;28;20048;-50
2022/01/27 09:55:13;;;;;;;26.42;15.82;;;8.80;76.10;;;;;;5075844;28;20048;-50
2022/01/27 09:57:39;;;;;;;25.60;15.93;;;8.70;76.10;;;;;;5073817;28;20091;-52
2022/01/27 10:00:07;;;;;;;29.33;17.77;;;8.70;76.30;;;;;;5080962;28;20702;-51
2022/01/27 10:02:39;;;;;;;26.50;17.65;;;8.80;76.40;;;;;;5065967;28;20084;-53
2022/01/27 10:05:08;;;;;;;26.92;16.98;;;8.80;76.40;;;;;;5055151;28;20484;-49
2022/01/27 10:07:42;;;;;;;25.25;16.27;;;8.80;76.40;;;;;;5082167;28;20126;-50
2022/01/27 10:10:15;;;;;;;24.23;16.33;;;8.80;76.80;;;;;;5060670;28;20044;-54
2022/01/27 10:12:47;;;;;;;26.02;16.15;;;8.80;76.80;;;;;;5069715;28;20591;-53
2022/01/27 10:15:19;;;;;;;28.65;17.15;;;8.80;76.90;;;;;;5078147;28;20049;-53
2022/01/27 10:18:06;;;;;;;25.20;15.25;;;8.80;77.00;;;;;;5074196;28;20521;-54
2022/01/27 10:20:38;;;;;;;26.25;15.93;;;8.80;77.70;;;;;;5048249;28;20071;-54
2022/01/27 10:23:09;;;;;;;28.50;16.15;;;8.90;77.10;;;;;;5073479;28;20102;-56
2022/01/27 10:25:46;;;;;;;23.83;15.65;;;8.90;77.30;;;;;;5076312;28;20037;-52
2022/01/27 10:31:07;;;;;;;22.83;13.63;;;8.90;77.70;;;;;;5078650;28;20496;-51
2022/01/27 10:33:58;;;;;;;24.25;15.40;;;8.90;77.40;;;;;;5075699;28;20105;-56
2022/01/27 10:36:36;;;;;;;23.73;14.68;;;9.00;77.70;;;;;;5074844;28;20105;-54
2022/01/27 10:39:13;;;;;;;24.83;14.07;;;9.00;77.50;;;;;;5090493;28;20438;-52
2022/01/27 10:42:06;;;;;;;19.75;14.40;;;9.00;77.40;;;;;;5081336;28;20559;-54
2022/01/27 10:44:43;;;;;;;23.02;14.20;;;9.00;78.00;;;;;;5077388;28;20064;-55
2022/01/27 10:47:21;;;;;;;25.15;14.82;;;9.00;77.30;;;;;;5087037;28;20051;-54
2022/01/27 10:49:57;;;;;;;25.10;15.20;;;9.00;78.10;;;;;;5078541;28;20040;-54
2022/01/27 10:55:21;;;;;;;22.23;14.43;;;9.00;77.60;;;;;;5049995;28;20068;-55
2022/01/27 10:57:51;;;;;;;22.25;14.40;;;9.10;78.30;;;;;;5056904;28;20040;-54
2022/01/27 11:00:20;;;;;;;24.50;15.20;;;9.10;77.60;;;;;;5071324;28;20076;-55
2022/01/27 11:02:47;;;;;;;20.38;13.85;;;9.10;77.80;;;;;;5067737;28;20442;-54
2022/01/27 11:05:24;;;;;;;25.25;14.40;;;9.10;77.80;;;;;;5071154;28;20066;-55
2022/01/27 11:07:51;;;;;;;22.58;13.60;;;9.10;78.10;;;;;;5065434;28;20101;-55
2022/01/27 11:10:19;;;;;;;19.92;13.27;;;9.20;77.90;;;;;;5080042;28;20044;-54
2022/01/27 11:12:49;;;;;;;21.48;13.75;;;9.20;78.00;;;;;;5072709;28;20119;-55
2022/01/27 11:15:17;;;;;;;20.10;14.73;;;9.20;78.10;;;;;;5071838;28;20071;-54
2022/01/27 11:17:49;;;;;;;20.33;13.50;;;9.20;78.20;;;;;;5078087;28;20076;-56
2022/01/27 11:23:59;;;;;;;20.98;13.07;;;9.30;78.20;;;;;;5076896;28;20037;-54
2022/01/27 11:26:26;;;;;;;19.75;13.45;;;9.30;78.20;;;;;;5068367;28;20052;-52
2022/01/27 11:28:56;;;;;;;20.10;13.50;;;9.30;78.00;;;;;;5078205;28;20577;-54
2022/01/27 11:32:07;;;;;;;19.83;13.32;;;9.30;78.30;;;;;;5076722;28;20040;-54
2022/01/27 11:34:47;;;;;;;19.58;12.43;;;9.30;79.00;;;;;;5062169;28;20499;-54
2022/01/27 11:37:18;;;;;;;17.33;12.15;;;9.30;78.70;;;;;;5073201;28;20565;-53
2022/01/27 11:39:54;;;;;;;20.02;11.65;;;9.30;78.20;;;;;;5083038;28;20052;-54
2022/01/27 11:42:34;;;;;;;22.10;12.27;;;9.30;78.50;;;;;;5087882;28;20055;-53
2022/01/27 11:45:22;;;;;;;18.33;12.60;;;9.30;78.30;;;;;;5085392;28;20066;-53
2022/01/27 11:47:53;;;;;;;19.05;11.65;;;9.40;78.90;;;;;;5073128;28;20445;-54
2022/01/27 11:50:34;;;;;;;14.52;10.25;;;9.40;78.40;;;;;;5076512;28;20123;-54
2022/01/27 11:53:03;;;;;;;13.77;10.32;;;9.40;78.80;;;;;;5069669;28;20044;-54
2022/01/27 11:55:35;;;;;;;14.20;9.50;;;9.40;78.60;;;;;;5063026;28;20471;-55
2022/01/27 11:58:14;;;;;;;16.13;9.95;;;9.40;78.70;;;;;;5066099;28;20049;-54
2022/01/27 12:00:59;;;;;;;16.67;10.40;;;9.40;78.90;;;;;;5062952;28;20044;-52
2022/01/27 12:03:26;;;;;;;15.82;10.13;;;9.40;79.30;;;;;;5057998;28;20106;-53
2022/01/27 12:06:21;;;;;;;14.13;10.07;;;9.50;78.70;;;;;;5067329;28;20036;-50
2022/01/27 12:08:49;;;;;;;15.20;9.88;;;9.40;79.30;;;;;;5059101;28;20470;-54
2022/01/27 12:11:42;;;;;;;14.02;10.10;;;9.50;78.70;;;;;;5060532;28;20041;-50
2022/01/27 12:14:08;;;;;;;13.15;9.82;;;9.50;79.30;;;;;;5067015;28;20076;-53
2022/01/27 12:19:10;;;;;;;15.20;9.80;;;9.50;78.80;;;;;;5080581;28;20063;-55
2022/01/27 12:21:45;;;;;;;14.50;10.07;;;9.50;79.10;;;;;;5066783;28;20068;-52
2022/01/27 12:24:12;;;;;;;12.98;9.48;;;9.50;78.90;;;;;;5074020;28;20044;-52
2022/01/27 12:27:05;;;;;;;12.52;9.52;;;9.50;78.90;;;;;;5069755;28;20045;-52
2022/01/27 12:29:40;;;;;;;14.60;9.52;;;9.60;79.70;;;;;;5057960;28;20053;-49
2022/01/27 12:32:08;;;;;;;12.32;9.07;;;9.60;79.80;;;;;;5072253;28;20045;-53
2022/01/27 12:34:37;;;;;;;13.35;9.45;;;9.60;79.00;;;;;;5071881;28;20110;-53
2022/01/27 12:37:05;;;;;;;13.38;9.63;;;9.60;79.00;;;;;;5066763;28;20041;-50
2022/01/27 12:39:39;;;;;;;13.07;10.15;;;9.60;79.10;;;;;;5085703;28;20124;-54
2022/01/27 12:42:16;;;;;;;16.00;9.57;;;9.80;79.30;;;;;;5076812;28;20087;-49
2022/01/27 12:45:03;;;;;;;11.60;9.20;;;9.70;79.30;;;;;;5077482;28;20048;-54
2022/01/27 12:47:31;;;;;;;14.30;9.20;;;9.70;79.60;;;;;;5084443;28;20457;-50
2022/01/27 12:50:06;;;;;;;11.40;9.13;;;9.70;79.00;;;;;;5060276;28;20047;-54
2022/01/27 12:52:38;;;;;;;12.98;8.98;;;9.80;79.30;;;;;;5068753;28;20818;-52
2022/01/27 12:55:16;;;;;;;13.40;8.32;;;9.80;79.20;;;;;;5070156;28;20087;-53
2022/01/27 12:58:10;;;;;;;11.48;8.60;;;9.80;79.20;;;;;;5068923;28;20044;-51
2022/01/27 13:00:50;;;;;;;10.70;8.40;;;9.80;79.30;;;;;;5069903;28;20048;-53
2022/01/27 13:03:24;;;;;;;11.55;8.60;;;9.90;79.80;;;;;;5076965;28;20507;-49
2022/01/27 13:05:53;;;;;;;11.25;8.90;;;9.90;79.40;;;;;;5049226;28;20044;-52
2022/01/27 13:08:25;;;;;;;13.40;9.20;;;9.90;79.50;;;;;;5079110;28;20074;-53
2022/01/27 13:10:57;;;;;;;12.43;9.38;;;9.90;79.60;;;;;;5066799;28;20027;-53
2022/01/27 13:13:28;;;;;;;11.77;9.05;;;9.90;79.50;;;;;;5065276;28;20464;-50
2022/01/27 13:16:00;;;;;;;11.43;8.70;;;9.90;79.50;;;;;;5059453;28;20046;-52
2022/01/27 13:18:38;;;;;;;11.50;8.80;;;10.00;79.60;;;;;;5052836;28;20045;-50
2022/01/27 13:21:17;;;;;;;13.30;9.30;;;10.00;79.40;;;;;;5073760;28;20559;-51
2022/01/27 13:23:46;;;;;;;10.38;8.52;;;10.00;79.50;;;;;;5074032;28;20043;-52
2022/01/27 13:26:16;;;;;;;13.07;9.82;;;10.00;79.50;;;;;;5075905;28;20036;-50
2022/01/27 13:28:45;;;;;;;11.82;9.57;;;10.00;79.50;;;;;;5074551;28;20053;-53
2022/01/27 13:33:47;;;;;;;19.10;14.60;;;10.10;79.70;;;;;;4999511;28;20038;-49
2022/01/27 13:36:18;;;;;;;19.17;14.80;;;10.00;79.70;;;;;;5006624;28;20034;-48
2022/01/27 13:39:24;;;;;;;21.92;16.77;;;10.10;79.90;;;;;;5005697;28;20056;-50
2022/01/27 13:41:51;;;;;;;23.50;16.85;;;10.10;80.40;;;;;;5005104;28;20037;-50
2022/01/27 13:44:21;;;;;;;21.80;18.38;;;10.10;79.70;;;;;;5010705;28;20042;-50
2022/01/27 13:46:50;;;;;;;21.02;17.98;;;10.20;79.90;;;;;;5008506;28;20038;-48
2022/01/27 13:49:27;;;;;;;21.92;19.33;;;10.20;79.90;;;;;;5004526;28;20070;-51